createdAt,value
2022-11-04T00:01:38.783Z,94211.94
2022-11-04T00:04:05.861Z,94205.72
2022-11-04T00:06:32.571Z,94212.56
2022-11-04T00:08:59.579Z,94220.31
2022-11-04T00:11:46.802Z,94227.31
2022-11-04T00:14:15.008Z,94225.47
2022-11-04T00:17:00.847Z,94227.72
2022-11-04T00:19:27.992Z,94246.16
2022-11-04T00:22:14.032Z,94221.19
2022-11-04T00:24:43.468Z,94248.56
2022-11-04T00:27:28.424Z,94233.28
2022-11-04T00:30:08.392Z,94245.22
2022-11-04T00:32:54.285Z,94250.56
2022-11-04T00:35:21.726Z,94253.97
2022-11-04T00:37:48.330Z,94259.78
2022-11-04T00:40:16.560Z,94270.63
2022-11-04T00:42:45.518Z,94266.31
2022-11-04T00:45:12.597Z,94281.41
2022-11-04T00:47:39.312Z,94269.53
2022-11-04T00:50:06.484Z,94275.50
2022-11-04T00:52:33.090Z,94285.50
2022-11-04T00:54:59.659Z,94294.16
2022-11-04T00:57:26.297Z,94292.72
2022-11-04T00:59:52.900Z,94288.84
2022-11-04T01:02:19.615Z,94281.00
2022-11-04T01:04:47.226Z,94292.84
2022-11-04T01:07:14.983Z,94289.31
2022-11-04T01:09:41.517Z,94291.41
2022-11-04T01:12:08.152Z,94297.00
2022-11-04T01:14:34.744Z,94296.38
2022-11-04T01:17:01.286Z,94294.97
2022-11-04T01:19:27.849Z,94293.03
2022-11-04T01:21:54.395Z,94279.34
2022-11-04T01:24:21.212Z,94287.09
2022-11-04T01:26:47.772Z,94265.84
2022-11-04T01:29:14.374Z,94255.06
2022-11-04T01:31:41.163Z,94248.47
2022-11-04T01:34:08.767Z,94252.16
2022-11-04T01:36:35.405Z,94252.47
2022-11-04T01:39:01.983Z,94234.44
2022-11-04T01:41:31.926Z,94238.50
2022-11-04T01:44:01.223Z,94232.69
2022-11-04T01:46:48.198Z,94222.25
2022-11-04T01:49:43.274Z,94227.72
2022-11-04T01:52:16.290Z,94218.69
2022-11-04T01:54:47.955Z,94226.41
2022-11-04T01:57:18.077Z,94213.88
2022-11-04T01:59:46.936Z,94218.19
2022-11-04T02:02:13.649Z,94201.00
2022-11-04T02:04:41.968Z,94204.53
2022-11-04T02:07:10.411Z,94209.38
2022-11-04T02:09:39.403Z,94203.75
2022-11-04T02:12:24.490Z,94200.69
2022-11-04T02:14:52.854Z,94204.38
2022-11-04T02:17:19.419Z,94214.03
2022-11-04T02:20:10.355Z,94215.78
2022-11-04T02:22:49.327Z,94208.56
2022-11-04T02:25:27.953Z,94213.22
2022-11-04T02:27:54.852Z,94220.91
2022-11-04T02:30:22.048Z,94217.88
2022-11-04T02:33:06.732Z,94216.75
2022-11-04T02:35:39.579Z,94229.13
2022-11-04T02:38:38.663Z,94228.63
2022-11-04T02:41:24.331Z,94225.47
2022-11-04T02:43:53.801Z,94225.44
2022-11-04T02:46:41.337Z,94219.28
2022-11-04T02:49:15.516Z,94227.19
2022-11-04T02:52:00.693Z,94228.50
2022-11-04T02:54:34.059Z,94227.00
2022-11-04T02:57:04.116Z,94228.28
2022-11-04T02:59:30.609Z,94221.69
2022-11-04T03:02:00.408Z,94215.72
2022-11-04T03:04:37.657Z,94214.13
2022-11-04T03:09:46.456Z,94209.13
2022-11-04T03:12:18.149Z,94198.38
2022-11-04T03:14:47.486Z,94203.84
2022-11-04T03:17:29.841Z,94206.56
2022-11-04T03:20:00.412Z,94213.31
2022-11-04T03:22:30.744Z,94207.94
2022-11-04T03:24:58.127Z,94209.09
2022-11-04T03:27:49.998Z,94216.16
2022-11-04T03:30:20.119Z,94216.31
2022-11-04T03:33:18.930Z,94212.56
2022-11-04T03:35:45.752Z,94211.13
2022-11-04T03:38:12.536Z,94210.81
2022-11-04T03:40:39.337Z,94206.81
2022-11-04T03:43:13.072Z,94211.97
2022-11-04T03:45:41.976Z,94210.16
2022-11-04T03:48:08.784Z,94203.22
2022-11-04T03:50:42.807Z,94207.06
2022-11-04T03:53:12.444Z,94198.59
2022-11-04T03:56:02.584Z,94198.41
2022-11-04T03:58:41.328Z,94196.13
2022-11-04T04:01:20.133Z,94194.88
2022-11-04T04:03:54.408Z,94194.88
2022-11-04T04:06:27.519Z,94187.84
2022-11-04T04:08:58.441Z,94181.28
2022-11-04T04:11:39.245Z,94179.31
2022-11-04T04:14:11.255Z,94191.09
2022-11-04T04:16:43.216Z,94199.59
2022-11-04T04:19:24.077Z,94215.34
2022-11-04T04:21:56.444Z,94206.31
2022-11-04T04:24:47.196Z,94205.84
2022-11-04T04:27:32.031Z,94206.97
2022-11-04T04:30:12.071Z,94214.19
2022-11-04T04:32:51.488Z,94203.13
2022-11-04T04:35:43.257Z,94195.31
2022-11-04T04:38:31.411Z,94194.34
2022-11-04T04:41:25.149Z,94201.53
2022-11-04T04:44:10.403Z,94211.81
2022-11-04T04:46:38.739Z,94220.81
2022-11-04T04:49:09.999Z,94213.81
2022-11-04T04:51:41.940Z,94209.78
2022-11-04T04:54:08.542Z,94215.28
2022-11-04T04:56:35.065Z,94218.00
2022-11-04T04:59:01.787Z,94217.88
2022-11-04T05:01:28.578Z,94216.44
2022-11-04T05:03:55.298Z,94223.34
2022-11-04T05:06:21.943Z,94223.22
2022-11-04T05:08:48.560Z,94227.88
2022-11-04T05:11:15.361Z,94236.84
2022-11-04T05:13:41.906Z,94233.88
2022-11-04T05:16:10.755Z,94236.13
2022-11-04T05:18:37.443Z,94224.19
2022-11-04T05:21:08.436Z,94218.66
2022-11-04T05:23:35.491Z,94235.03
2022-11-04T05:26:02.324Z,94241.44
2022-11-04T05:28:29.163Z,94246.00
2022-11-04T05:30:56.286Z,94242.91
2022-11-04T05:33:22.862Z,94240.03
2022-11-04T05:35:49.524Z,94234.84
2022-11-04T05:38:16.134Z,94236.28
2022-11-04T05:40:42.762Z,94231.22
2022-11-04T05:43:09.555Z,94207.59
2022-11-04T05:45:36.372Z,94201.13
2022-11-04T05:48:05.162Z,94214.81
2022-11-04T05:50:33.197Z,94229.34
2022-11-04T05:53:00.704Z,94225.72
2022-11-04T05:55:27.873Z,94217.69
2022-11-04T05:57:54.533Z,94218.41
2022-11-04T06:00:21.274Z,94232.25
2022-11-04T06:02:48.149Z,94232.41
2022-11-04T06:05:14.827Z,94232.22
2022-11-04T06:07:41.430Z,94227.31
2022-11-04T06:10:08.502Z,94208.59
2022-11-04T06:12:35.113Z,94211.97
2022-11-04T06:15:01.836Z,94220.16
2022-11-04T06:17:28.455Z,94218.78
2022-11-04T06:19:55.060Z,94223.88
2022-11-04T06:22:21.728Z,94215.56
2022-11-04T06:24:48.538Z,94206.75
2022-11-04T06:27:15.265Z,94218.69
2022-11-04T06:29:43.351Z,94220.97
2022-11-04T06:32:12.541Z,94220.56
2022-11-04T06:34:40.528Z,94221.53
2022-11-04T06:37:07.853Z,94224.97
2022-11-04T06:39:34.487Z,94231.00
2022-11-04T06:42:02.710Z,94229.69
2022-11-04T06:44:30.255Z,94232.47
2022-11-04T06:46:57.401Z,94242.41
2022-11-04T06:49:24.003Z,94230.06
2022-11-04T06:51:51.946Z,94222.44
2022-11-04T06:54:18.641Z,94226.91
2022-11-04T06:56:45.789Z,94222.03
2022-11-04T06:59:17.631Z,94216.03
2022-11-04T07:01:45.322Z,94215.31
2022-11-04T07:04:12.038Z,94211.59
2022-11-04T07:06:43.936Z,94212.16
2022-11-04T07:09:13.204Z,94224.47
2022-11-04T07:11:40.436Z,94239.00
2022-11-04T07:14:08.760Z,94240.41
2022-11-04T07:16:35.834Z,94238.91
2022-11-04T07:19:02.790Z,94245.63
2022-11-04T07:21:32.599Z,94259.34
2022-11-04T07:24:00.424Z,94267.69
2022-11-04T07:26:26.977Z,94276.19
2022-11-04T07:28:53.587Z,94279.41
2022-11-04T07:31:20.301Z,94288.78
2022-11-04T07:33:50.153Z,94297.44
2022-11-04T07:36:17.555Z,94285.94
2022-11-04T07:38:44.742Z,94273.53
2022-11-04T07:41:12.494Z,94263.91
2022-11-04T07:43:39.058Z,94267.25
2022-11-04T07:46:12.127Z,94263.09
2022-11-04T07:48:39.391Z,94275.66
2022-11-04T07:51:08.425Z,94288.56
2022-11-04T07:53:35.153Z,94308.72
2022-11-04T07:56:06.821Z,94324.22
2022-11-04T07:58:33.719Z,94324.81
2022-11-04T08:01:10.408Z,94311.34
2022-11-04T08:03:37.095Z,94294.31
2022-11-04T08:06:05.413Z,94283.53
2022-11-04T08:08:32.748Z,94288.09
2022-11-04T08:11:17.024Z,94287.13
2022-11-04T08:13:45.737Z,94295.63
2022-11-04T08:16:14.805Z,94286.19
2022-11-04T08:18:43.086Z,94284.56
2022-11-04T08:21:10.823Z,94286.50
2022-11-04T08:23:37.804Z,94263.53
2022-11-04T08:26:13.164Z,94267.91
2022-11-04T08:28:40.346Z,94265.81
2022-11-04T08:31:11.147Z,94255.38
2022-11-04T08:33:37.743Z,94241.00
2022-11-04T08:36:09.102Z,94232.91
2022-11-04T08:38:36.379Z,94235.09
2022-11-04T08:41:06.177Z,94243.72
2022-11-04T08:43:34.358Z,94237.78
2022-11-04T08:46:02.169Z,94245.28
2022-11-04T08:48:28.815Z,94239.84
2022-11-04T08:50:58.972Z,94227.97
2022-11-04T08:53:25.700Z,94216.75
2022-11-04T08:55:52.382Z,94218.34
2022-11-04T08:58:18.992Z,94225.22
2022-11-04T09:00:45.641Z,94230.56
2022-11-04T09:03:12.504Z,94221.63
2022-11-04T09:05:45.870Z,94230.94
2022-11-04T09:08:13.508Z,94230.94
2022-11-04T09:10:47.683Z,94224.91
2022-11-04T09:13:15.815Z,94224.34
2022-11-04T09:15:43.406Z,94231.84
2022-11-04T09:18:10.075Z,94231.94
2022-11-04T09:20:39.835Z,94224.69
2022-11-04T09:23:07.144Z,94226.09
2022-11-04T09:25:34.994Z,94225.91
2022-11-04T09:28:10.753Z,94225.81
2022-11-04T09:30:37.838Z,94225.81
2022-11-04T09:33:04.573Z,94222.44
2022-11-04T09:35:31.167Z,94227.06
2022-11-04T09:37:59.931Z,94224.00
2022-11-04T09:40:27.175Z,94228.25
2022-11-04T09:43:09.385Z,94242.22
2022-11-04T09:45:40.052Z,94238.69
2022-11-04T09:48:12.548Z,94243.97
2022-11-04T09:50:49.261Z,94243.38
2022-11-04T09:53:19.702Z,94238.84
2022-11-04T09:55:54.539Z,94246.19
2022-11-04T09:58:21.258Z,94236.94
2022-11-04T10:01:13.886Z,94227.84
2022-11-04T10:04:22.538Z,94224.34
2022-11-04T10:06:52.002Z,94211.78
2022-11-04T10:09:30.714Z,94208.84
2022-11-04T10:12:05.344Z,94201.84
2022-11-04T10:15:02.861Z,94196.41
2022-11-04T10:17:41.955Z,94198.44
2022-11-04T10:20:08.809Z,94192.81
2022-11-04T10:22:54.111Z,94189.50
2022-11-04T10:25:23.525Z,94178.78
2022-11-04T10:27:52.093Z,94176.06
2022-11-04T10:30:22.337Z,94176.13
2022-11-04T10:32:52.918Z,94169.78
2022-11-04T10:35:32.130Z,94169.50
2022-11-04T10:38:13.398Z,94159.63
2022-11-04T10:40:41.799Z,94163.97
2022-11-04T10:43:16.093Z,94169.47
2022-11-04T10:46:02.610Z,94173.00
2022-11-04T10:48:37.024Z,94177.72
2022-11-04T10:51:04.983Z,94170.34
2022-11-04T10:53:32.840Z,94171.31
2022-11-04T10:56:07.158Z,94169.06
2022-11-04T10:58:43.008Z,94167.16
2022-11-04T11:01:34.238Z,94163.19
2022-11-04T11:04:06.245Z,94167.84
2022-11-04T11:06:35.874Z,94169.34
2022-11-04T11:09:18.768Z,94166.94
2022-11-04T11:11:49.009Z,94169.28
2022-11-04T11:14:28.555Z,94171.75
2022-11-04T11:16:56.382Z,94171.09
2022-11-04T11:19:25.297Z,94171.56
2022-11-04T11:21:57.092Z,94163.41
2022-11-04T11:24:26.675Z,94170.44
2022-11-04T11:26:56.440Z,94164.97
2022-11-04T11:29:40.069Z,94177.38
2022-11-04T11:32:40.921Z,94183.34
2022-11-04T11:35:17.336Z,94192.78
2022-11-04T11:37:47.917Z,94195.59
2022-11-04T11:40:31.912Z,94193.47
2022-11-04T11:43:00.858Z,94192.72
2022-11-04T11:45:29.042Z,94187.28
2022-11-04T11:47:56.211Z,94191.53
2022-11-04T11:50:34.257Z,94189.56
2022-11-04T11:53:19.662Z,94199.50
2022-11-04T11:56:05.943Z,94199.44
2022-11-04T12:01:50.818Z,94201.63
2022-11-04T12:10:50.446Z,94203.84
2022-11-04T12:13:32.618Z,94206.66
2022-11-04T12:16:32.915Z,94211.56
2022-11-04T12:19:27.549Z,94208.44
2022-11-04T12:22:16.187Z,94210.28
2022-11-04T12:24:53.314Z,94210.44
2022-11-04T12:27:31.064Z,94198.44
2022-11-04T12:30:08.485Z,94190.66
2022-11-04T12:32:46.976Z,94181.47
2022-11-04T12:35:28.672Z,94183.06
2022-11-04T12:37:55.168Z,94182.25
2022-11-04T12:40:28.275Z,94188.19
2022-11-04T12:43:17.580Z,94184.78
2022-11-04T12:45:59.304Z,94190.34
2022-11-04T12:48:40.544Z,94197.69
2022-11-04T12:51:49.003Z,94208.66
2022-11-04T12:54:39.949Z,94228.00
2022-11-04T12:57:43.538Z,94230.06
2022-11-04T13:00:31.240Z,94229.81
2022-11-04T13:03:05.452Z,94230.72
2022-11-04T13:05:50.950Z,94240.75
2022-11-04T13:08:28.594Z,94238.50
2022-11-04T13:11:23.263Z,94241.34
2022-11-04T13:14:11.544Z,94235.63
2022-11-04T13:16:44.691Z,94239.06
2022-11-04T13:19:40.517Z,94241.56
2022-11-04T13:22:11.842Z,94241.75
2022-11-04T13:24:47.435Z,94241.84
2022-11-04T13:27:25.993Z,94239.75
2022-11-04T13:30:06.306Z,94242.94
2022-11-04T13:32:45.353Z,94242.94
2022-11-04T13:35:18.877Z,94240.16
2022-11-04T13:38:12.829Z,94249.41
2022-11-04T13:41:21.536Z,94247.63
2022-11-04T13:43:55.886Z,94255.31
2022-11-04T13:46:23.767Z,94250.19
2022-11-04T13:49:05.684Z,94248.91
2022-11-04T13:51:38.400Z,94250.50
2022-11-04T13:54:06.436Z,94256.44
2022-11-04T13:56:41.503Z,94252.84
2022-11-04T13:59:16.966Z,94254.38
2022-11-04T14:01:43.899Z,94259.38
2022-11-04T14:04:13.497Z,94251.09
2022-11-04T14:06:55.343Z,94256.13
2022-11-04T14:09:40.545Z,94254.38
2022-11-04T14:12:13.590Z,94249.50
2022-11-04T14:14:46.482Z,94251.53
2022-11-04T14:17:35.256Z,94245.69
2022-11-04T14:20:23.409Z,94236.28
2022-11-04T14:22:55.934Z,94240.66
2022-11-04T14:25:44.084Z,94235.19
2022-11-04T14:28:10.687Z,94235.78
2022-11-04T14:30:43.363Z,94236.34
2022-11-04T14:33:33.845Z,94230.78
2022-11-04T14:36:19.136Z,94227.13
2022-11-04T14:39:07.972Z,94235.63
2022-11-04T14:41:40.636Z,94225.59
2022-11-04T14:44:21.246Z,94237.25
2022-11-04T14:46:51.494Z,94231.97
2022-11-04T14:49:36.317Z,94235.53
2022-11-04T14:52:03.498Z,94241.56
2022-11-04T14:54:34.057Z,94249.69
2022-11-04T14:57:18.012Z,94243.03
2022-11-04T14:59:44.684Z,94246.03
2022-11-04T15:02:21.866Z,94247.34
2022-11-04T15:04:55.024Z,94252.84
2022-11-04T15:07:34.343Z,94246.19
2022-11-04T15:10:03.496Z,94248.25
2022-11-04T15:12:48.747Z,94248.66
2022-11-04T15:15:41.922Z,94244.78
2022-11-04T15:18:14.563Z,94247.56
2022-11-04T15:20:53.772Z,94250.78
2022-11-04T15:23:28.979Z,94247.28
2022-11-04T15:25:56.997Z,94242.06
2022-11-04T15:28:47.285Z,94247.34
2022-11-04T15:31:20.929Z,94244.03
2022-11-04T15:33:54.004Z,94251.34
2022-11-04T15:36:28.156Z,94254.34
2022-11-04T15:39:16.550Z,94256.22
2022-11-04T15:42:03.754Z,94261.34
2022-11-04T15:44:33.071Z,94255.97
2022-11-04T15:47:24.693Z,94261.41
2022-11-04T15:49:54.432Z,94259.41
2022-11-04T15:52:24.611Z,94266.97
2022-11-04T15:54:53.581Z,94267.41
2022-11-04T15:57:20.119Z,94261.66
2022-11-04T15:59:52.924Z,94264.75
2022-11-04T16:02:30.666Z,94271.78
2022-11-04T16:05:10.712Z,94279.22
2022-11-04T16:07:38.674Z,94280.00
2022-11-04T16:10:25.022Z,94281.66
2022-11-04T16:12:57.599Z,94295.69
2022-11-04T16:15:36.306Z,94287.03
2022-11-04T16:18:05.351Z,94288.69
2022-11-04T16:20:34.636Z,94287.72
2022-11-04T16:23:03.098Z,94285.81
2022-11-04T16:25:34.211Z,94285.44
2022-11-04T16:28:01.765Z,94291.78
2022-11-04T16:30:29.057Z,94297.88
2022-11-04T16:33:10.261Z,94294.19
2022-11-04T16:35:42.520Z,94291.13
2022-11-04T16:38:09.163Z,94289.53
2022-11-04T16:40:36.196Z,94292.66
2022-11-04T16:43:02.943Z,94292.13
2022-11-04T16:45:34.715Z,94302.34
2022-11-04T16:48:01.363Z,94301.13
2022-11-04T16:50:28.787Z,94299.38
2022-11-04T16:52:55.415Z,94296.69
2022-11-04T16:55:23.594Z,94304.22
2022-11-04T16:58:02.379Z,94300.84
2022-11-04T17:00:32.936Z,94303.56
2022-11-04T17:03:20.991Z,94313.25
2022-11-04T17:05:52.129Z,94304.22
2022-11-04T17:08:18.729Z,94310.69
2022-11-04T17:10:45.490Z,94313.50
2022-11-04T17:13:13.101Z,94315.13
2022-11-04T17:15:40.503Z,94314.84
2022-11-04T17:18:07.487Z,94319.97
2022-11-04T17:20:34.166Z,94317.25
2022-11-04T17:23:00.798Z,94323.19
2022-11-04T17:25:29.922Z,94332.91
2022-11-04T17:27:56.546Z,94326.28
2022-11-04T17:30:23.654Z,94342.47
2022-11-04T17:32:50.559Z,94344.34
2022-11-04T17:35:18.220Z,94346.91
2022-11-04T17:37:45.187Z,94350.94
2022-11-04T17:40:15.068Z,94352.69
2022-11-04T17:43:00.318Z,94357.13
2022-11-04T17:45:27.185Z,94349.59
2022-11-04T17:47:53.768Z,94355.41
2022-11-04T17:50:20.392Z,94354.72
2022-11-04T17:52:49.157Z,94356.06
2022-11-04T17:55:18.113Z,94361.44
2022-11-04T17:57:47.356Z,94359.56
2022-11-04T18:00:14.613Z,94364.13
2022-11-04T18:02:41.757Z,94356.84
2022-11-04T18:05:09.474Z,94359.69
2022-11-04T18:07:36.082Z,94361.31
2022-11-04T18:10:02.678Z,94360.66
2022-11-04T18:12:38.100Z,94369.00
2022-11-04T18:15:08.031Z,94372.34
2022-11-04T18:17:39.772Z,94372.63
2022-11-04T18:20:13.388Z,94369.13
2022-11-04T18:22:41.542Z,94368.19
2022-11-04T18:25:08.792Z,94380.97
2022-11-04T18:27:35.577Z,94383.41
2022-11-04T18:30:02.196Z,94390.41
2022-11-04T18:32:28.845Z,94402.38
2022-11-04T18:34:55.401Z,94393.78
2022-11-04T18:37:23.142Z,94398.06
2022-11-04T18:39:49.789Z,94411.94
2022-11-04T18:42:16.402Z,94411.53
2022-11-04T18:44:43.033Z,94418.25
2022-11-04T18:47:09.662Z,94417.19
2022-11-04T18:49:36.302Z,94415.97
2022-11-04T18:52:02.979Z,94415.16
2022-11-04T18:54:29.539Z,94412.19
2022-11-04T18:56:56.136Z,94417.28
2022-11-04T18:59:22.786Z,94426.81
2022-11-04T19:01:51.295Z,94420.19
2022-11-04T19:04:18.502Z,94420.47
2022-11-04T19:06:45.464Z,94418.97
2022-11-04T19:12:19.995Z,94426.03
2022-11-04T19:14:46.558Z,94429.09
2022-11-04T19:17:13.154Z,94437.53
2022-11-04T19:19:41.169Z,94441.03
2022-11-04T19:22:08.605Z,94449.22
2022-11-04T19:24:35.330Z,94447.16
2022-11-04T19:27:02.138Z,94442.88
2022-11-04T19:29:29.530Z,94455.19
2022-11-04T19:31:56.584Z,94454.72
2022-11-04T19:34:25.541Z,94461.13
2022-11-04T19:36:52.875Z,94467.41
2022-11-04T19:39:19.486Z,94481.56
2022-11-04T19:42:04.745Z,94485.09
2022-11-04T19:44:31.726Z,94488.97
2022-11-04T19:46:58.305Z,94500.34
2022-11-04T19:49:24.874Z,94498.53
2022-11-04T19:51:51.451Z,94504.72
2022-11-04T19:54:19.134Z,94504.25
2022-11-04T19:56:45.757Z,94499.63
2022-11-04T19:59:12.497Z,94509.66
2022-11-04T20:01:40.066Z,94516.00
2022-11-04T20:04:07.342Z,94521.50
2022-11-04T20:06:35.151Z,94527.88
2022-11-04T20:09:05.279Z,94525.78
2022-11-04T20:11:33.771Z,94538.91
2022-11-04T20:14:07.444Z,94539.56
2022-11-04T20:16:39.264Z,94546.47
2022-11-04T20:19:06.132Z,94547.13
2022-11-04T20:21:35.294Z,94548.22
2022-11-04T20:24:04.698Z,94553.91
2022-11-04T20:26:32.589Z,94555.75
2022-11-04T20:28:59.248Z,94552.25
2022-11-04T20:31:31.938Z,94562.00
2022-11-04T20:33:59.155Z,94563.94
2022-11-04T20:36:27.991Z,94565.13
2022-11-04T20:39:04.214Z,94570.31
2022-11-04T20:41:31.862Z,94570.13
2022-11-04T20:43:58.917Z,94576.25
2022-11-04T20:46:28.569Z,94579.13
2022-11-04T20:48:57.243Z,94586.44
2022-11-04T20:51:28.614Z,94585.59
2022-11-04T20:53:56.565Z,94591.50
2022-11-04T20:56:25.238Z,94593.94
2022-11-04T20:58:57.689Z,94599.34
2022-11-04T21:01:28.833Z,94602.13
2022-11-04T21:03:59.122Z,94599.34
2022-11-04T21:06:26.207Z,94605.03
2022-11-04T21:08:52.883Z,94609.09
2022-11-04T21:11:19.836Z,94612.03
2022-11-04T21:13:46.485Z,94605.53
2022-11-04T21:16:14.887Z,94613.19
2022-11-04T21:18:41.494Z,94620.84
2022-11-04T21:21:08.908Z,94623.38
2022-11-04T21:23:35.708Z,94626.38
2022-11-04T21:26:13.962Z,94626.53
2022-11-04T21:28:40.670Z,94623.41
2022-11-04T21:31:13.448Z,94628.50
2022-11-04T21:33:40.040Z,94625.16
2022-11-04T21:36:10.438Z,94628.16
2022-11-04T21:38:37.056Z,94628.16
2022-11-04T21:41:06.050Z,94625.84
2022-11-04T21:43:32.853Z,94625.97
2022-11-04T21:46:04.044Z,94623.75
2022-11-04T21:48:35.351Z,94623.16
2022-11-04T21:51:04.982Z,94620.94
2022-11-04T21:53:31.872Z,94613.88
2022-11-04T21:56:09.363Z,94610.16
2022-11-04T21:58:36.899Z,94609.13
2022-11-04T22:01:05.513Z,94611.66
2022-11-04T22:03:32.447Z,94610.03
2022-11-04T22:06:05.964Z,94616.91
2022-11-04T22:08:33.658Z,94620.94
2022-11-04T22:11:15.472Z,94615.59
2022-11-04T22:13:42.419Z,94621.84
2022-11-04T22:16:18.609Z,94626.81
2022-11-04T22:18:46.086Z,94628.47
2022-11-04T22:21:17.536Z,94636.81
2022-11-04T22:23:44.608Z,94639.94
2022-11-04T22:26:17.916Z,94639.56
2022-11-04T22:28:44.574Z,94642.03
2022-11-04T22:31:14.755Z,94639.09
2022-11-04T22:33:41.837Z,94638.03
2022-11-04T22:36:09.508Z,94634.81
2022-11-04T22:38:40.493Z,94630.38
2022-11-04T22:41:13.312Z,94644.19
2022-11-04T22:43:40.052Z,94647.56
2022-11-04T22:46:17.494Z,94651.63
2022-11-04T22:48:44.079Z,94653.25
2022-11-04T22:51:11.193Z,94655.44
2022-11-04T22:53:38.682Z,94660.28
2022-11-04T22:56:07.788Z,94659.13
2022-11-04T22:58:34.903Z,94662.50
2022-11-04T23:01:05.216Z,94659.69
2022-11-04T23:03:32.289Z,94660.13
2022-11-04T23:06:01.283Z,94659.22
2022-11-04T23:08:29.797Z,94665.38
2022-11-04T23:11:21.175Z,94664.88
2022-11-04T23:14:11.370Z,94670.34
2022-11-04T23:16:58.197Z,94672.63
2022-11-04T23:19:30.648Z,94669.03
2022-11-04T23:22:15.991Z,94674.94
2022-11-04T23:25:04.254Z,94676.88
2022-11-04T23:27:49.614Z,94681.50
2022-11-04T23:30:22.735Z,94673.44
2022-11-04T23:32:56.068Z,94682.28
2022-11-04T23:36:06.016Z,94682.97
2022-11-04T23:38:33.533Z,94683.31
2022-11-04T23:41:24.446Z,94690.41
2022-11-04T23:43:51.302Z,94686.72
2022-11-04T23:46:42.574Z,94686.63
2022-11-04T23:49:29.822Z,94697.53
2022-11-04T23:52:16.736Z,94702.25
2022-11-04T23:55:01.651Z,94701.44
2022-11-04T23:57:46.955Z,94705.06
